Time;durP1;ratioP1;P1;durP2;ratioP2;P2;SDS_P1;SDS_P2;PMS_P1;PMS_P2;Temp;Humidity;BMP_temperature;BMP_pressure;BME280_temperature;BME280_humidity;BME280_pressure;Samples;Min_cycle;Max_cycle;Signal;HPM_P1;HPM_P2
2021/10/24 00:00:51;;;;;;;3.10;1.52;;;6.10;95.00;;;;;;5010162;28;20049;-76
2021/10/24 00:03:18;;;;;;;3.63;1.60;;;6.10;95.00;;;;;;5021165;28;20117;-76
2021/10/24 00:05:45;;;;;;;2.72;1.30;;;6.10;95.00;;;;;;5010221;28;20053;-76
2021/10/24 00:08:12;;;;;;;2.97;1.52;;;6.10;95.00;;;;;;5020365;28;20093;-76
2021/10/24 00:10:39;;;;;;;3.63;1.42;;;6.00;95.00;;;;;;5018050;28;20038;-76
2021/10/24 00:13:06;;;;;;;4.03;1.40;;;6.00;95.00;;;;;;5012000;28;20049;-76
2021/10/24 00:15:33;;;;;;;4.45;1.63;;;6.00;95.00;;;;;;5021082;28;20038;-76
2021/10/24 00:18:00;;;;;;;3.80;1.33;;;6.00;95.00;;;;;;5007737;28;20045;-76
2021/10/24 00:20:27;;;;;;;3.20;1.33;;;6.00;95.30;;;;;;5008595;28;20092;-76
2021/10/24 00:22:54;;;;;;;3.75;1.50;;;6.00;95.00;;;;;;5013126;28;20079;-76
2021/10/24 00:25:21;;;;;;;3.95;2.03;;;6.00;95.00;;;;;;5005922;28;20048;-76
2021/10/24 00:27:48;;;;;;;4.35;1.90;;;6.00;95.00;;;;;;5017870;28;20068;-76
2021/10/24 00:30:15;;;;;;;3.22;1.63;;;6.00;95.00;;;;;;5007880;28;20045;-76
2021/10/24 00:32:43;;;;;;;4.57;2.08;;;6.00;95.00;;;;;;5006157;28;20065;-76
2021/10/24 00:35:10;;;;;;;2.88;1.52;;;5.90;95.00;;;;;;5009540;28;20049;-76
2021/10/24 00:37:37;;;;;;;3.20;1.45;;;6.00;95.00;;;;;;5006990;28;20112;-76
2021/10/24 00:40:05;;;;;;;3.42;1.40;;;6.00;95.00;;;;;;5000817;28;20043;-76
2021/10/24 00:42:49;;;;;;;3.05;1.30;;;5.90;95.00;;;;;;5016267;28;20045;-76
2021/10/24 00:45:17;;;;;;;5.10;1.77;;;5.90;95.00;;;;;;5007650;28;20116;-76
2021/10/24 00:47:44;;;;;;;3.20;1.30;;;5.90;95.00;;;;;;5018769;28;20052;-76
2021/10/24 00:50:12;;;;;;;3.70;1.48;;;5.90;95.00;;;;;;5010244;28;20497;-76
2021/10/24 00:52:42;;;;;;;3.65;1.40;;;5.90;95.00;;;;;;5018979;28;20401;-76
2021/10/24 00:55:11;;;;;;;3.53;1.52;;;5.90;95.00;;;;;;5018110;28;20034;-76
2021/10/24 00:57:38;;;;;;;2.95;1.40;;;5.80;95.30;;;;;;5003363;28;20107;-76
2021/10/24 01:00:09;;;;;;;5.35;1.73;;;5.80;95.00;;;;;;5007375;28;20121;-76
2021/10/24 01:02:36;;;;;;;2.72;1.50;;;5.80;95.00;;;;;;5005959;28;20073;-76
2021/10/24 01:05:08;;;;;;;2.70;1.27;;;5.80;95.00;;;;;;5014954;28;20099;-76
2021/10/24 01:07:38;;;;;;;3.58;1.48;;;5.80;95.00;;;;;;5024640;28;20054;-76
2021/10/24 01:10:07;;;;;;;2.63;1.35;;;5.80;95.10;;;;;;5005261;28;20041;-76
2021/10/24 01:12:38;;;;;;;2.67;1.17;;;5.80;95.00;;;;;;5019426;28;20420;-76
2021/10/24 01:15:06;;;;;;;4.40;1.42;;;5.80;95.10;;;;;;5032782;28;20042;-76
2021/10/24 01:17:33;;;;;;;3.08;1.20;;;5.80;95.10;;;;;;5009119;28;20539;-76
2021/10/24 01:20:01;;;;;;;3.03;1.55;;;5.70;95.10;;;;;;5005798;28;20038;-76
2021/10/24 01:22:29;;;;;;;2.75;1.23;;;5.80;95.30;;;;;;5021973;28;20069;-76
2021/10/24 01:24:57;;;;;;;3.58;1.77;;;5.70;95.00;;;;;;5020207;28;20038;-76
2021/10/24 01:27:24;;;;;;;3.90;1.63;;;5.70;95.10;;;;;;5014006;28;20053;-76
2021/10/24 01:29:51;;;;;;;4.50;1.73;;;5.70;95.00;;;;;;5018621;28;20046;-76
2021/10/24 01:32:18;;;;;;;3.45;2.08;;;5.70;95.10;;;;;;5005989;28;20049;-76
2021/10/24 01:34:47;;;;;;;3.08;1.23;;;5.70;95.10;;;;;;5003835;28;20164;-76
2021/10/24 01:37:15;;;;;;;3.88;1.60;;;5.70;95.10;;;;;;5015486;28;20042;-76
2021/10/24 01:39:45;;;;;;;3.63;1.73;;;5.70;95.10;;;;;;4990161;28;20038;-76
2021/10/24 01:42:12;;;;;;;4.03;1.63;;;5.60;95.00;;;;;;5018755;28;20519;-76
2021/10/24 01:44:39;;;;;;;3.88;1.38;;;5.60;95.10;;;;;;5017724;28;20117;-76
2021/10/24 01:47:06;;;;;;;3.75;1.75;;;5.60;95.10;;;;;;5006464;28;20045;-76
2021/10/24 01:49:36;;;;;;;2.65;1.52;;;5.60;95.10;;;;;;5009561;28;20048;-76
2021/10/24 01:52:04;;;;;;;2.83;1.05;;;5.60;95.10;;;;;;4997205;28;20049;-76
2021/10/24 01:54:33;;;;;;;3.33;1.40;;;5.60;95.10;;;;;;4980423;28;20493;-76
2021/10/24 01:57:00;;;;;;;4.43;1.85;;;5.60;95.10;;;;;;5008843;28;20046;-76
2021/10/24 01:59:30;;;;;;;5.57;1.60;;;5.60;95.10;;;;;;5013284;28;20490;-76
2021/10/24 02:02:33;;;;;;;3.75;1.60;;;5.60;95.10;;;;;;5003326;28;20499;-76
2021/10/24 02:05:23;;;;;;;3.38;1.25;;;5.50;95.10;;;;;;5003272;28;20054;-76
2021/10/24 02:07:51;;;;;;;2.28;1.10;;;5.50;95.10;;;;;;5018766;28;20490;-76
2021/10/24 02:10:18;;;;;;;4.95;1.80;;;5.50;95.00;;;;;;5020893;28;20073;-76
2021/10/24 02:12:46;;;;;;;3.47;1.48;;;5.50;95.10;;;;;;5021152;28;20132;-76
2021/10/24 02:15:18;;;;;;;4.18;1.50;;;5.50;95.10;;;;;;5037154;28;20128;-76
2021/10/24 02:17:45;;;;;;;3.53;1.40;;;5.50;95.10;;;;;;5017819;28;20037;-76
2021/10/24 02:20:15;;;;;;;2.47;1.55;;;5.50;95.10;;;;;;5007493;28;20825;-76
2021/10/24 02:22:44;;;;;;;2.72;1.40;;;5.50;95.10;;;;;;5024484;28;20044;-76
2021/10/24 02:25:18;;;;;;;3.47;1.38;;;5.50;95.10;;;;;;4990662;28;20052;-76
2021/10/24 02:27:47;;;;;;;3.08;1.58;;;5.40;95.10;;;;;;5041620;28;20049;-76
2021/10/24 02:30:15;;;;;;;3.63;1.20;;;5.40;95.10;;;;;;5022038;28;20052;-76
2021/10/24 02:32:43;;;;;;;3.00;1.30;;;5.40;95.10;;;;;;5023215;28;20121;-76
2021/10/24 02:35:25;;;;;;;3.88;1.67;;;5.40;95.10;;;;;;5025075;28;20584;-76
2021/10/24 02:37:54;;;;;;;2.60;1.27;;;5.40;95.10;;;;;;5040405;28;20037;-76
2021/10/24 02:40:25;;;;;;;4.10;1.80;;;5.40;95.10;;;;;;5021545;28;20042;-76
2021/10/24 02:42:55;;;;;;;3.15;1.30;;;5.40;95.10;;;;;;5011962;28;20037;-76
2021/10/24 02:45:28;;;;;;;3.50;1.70;;;5.40;95.10;;;;;;5021475;28;20410;-76
2021/10/24 02:47:56;;;;;;;3.90;1.75;;;5.40;95.40;;;;;;5029974;28;20490;-76
2021/10/24 02:50:25;;;;;;;4.82;1.88;;;5.40;95.10;;;;;;5008601;28;20413;-76
2021/10/24 02:52:52;;;;;;;4.40;1.63;;;5.40;95.10;;;;;;5022526;28;20072;-76
2021/10/24 02:55:19;;;;;;;3.88;1.50;;;5.40;95.10;;;;;;5010503;28;20148;-76
2021/10/24 02:57:46;;;;;;;3.25;1.40;;;5.30;95.10;;;;;;5001856;28;20042;-76
2021/10/24 03:00:14;;;;;;;3.30;1.20;;;5.30;95.10;;;;;;5018853;28;20065;-76
2021/10/24 03:02:44;;;;;;;3.72;1.77;;;5.30;95.40;;;;;;5023192;28;20323;-76
2021/10/24 03:05:12;;;;;;;3.22;1.40;;;5.30;95.10;;;;;;5012606;28;20038;-76
2021/10/24 03:07:41;;;;;;;3.83;1.60;;;5.30;95.10;;;;;;5004789;28;20054;-76
2021/10/24 03:10:08;;;;;;;2.70;1.23;;;5.30;95.10;;;;;;5011338;28;20049;-76
2021/10/24 03:12:37;;;;;;;5.22;1.63;;;5.30;95.10;;;;;;5018693;28;20539;-76
2021/10/24 03:15:05;;;;;;;2.92;1.25;;;5.30;95.10;;;;;;5023082;28;20045;-75
2021/10/24 03:17:32;;;;;;;4.32;1.80;;;5.30;95.20;;;;;;5025691;28;20042;-76
2021/10/24 03:19:59;;;;;;;3.28;1.55;;;5.30;95.10;;;;;;5021745;28;20465;-76
2021/10/24 03:22:26;;;;;;;5.60;2.38;;;5.30;95.10;;;;;;5009369;28;20045;-76
2021/10/24 03:24:56;;;;;;;2.97;1.52;;;5.30;95.10;;;;;;4994991;28;20065;-76
2021/10/24 03:27:23;;;;;;;3.47;1.60;;;5.30;95.10;;;;;;5007751;28;20049;-76
2021/10/24 03:29:51;;;;;;;3.95;1.88;;;5.30;95.10;;;;;;5011200;28;20050;-76
2021/10/24 03:32:22;;;;;;;5.13;2.25;;;5.30;95.10;;;;;;5012668;28;20049;-76
2021/10/24 03:34:50;;;;;;;3.05;1.45;;;5.30;95.10;;;;;;5019957;28;20041;-76
2021/10/24 03:37:17;;;;;;;3.28;1.30;;;5.30;95.10;;;;;;5020344;28;20072;-75
2021/10/24 03:39:45;;;;;;;3.17;1.48;;;5.30;95.10;;;;;;5011252;28;20058;-76
2021/10/24 03:42:12;;;;;;;2.75;1.27;;;5.30;95.10;;;;;;5024298;28;20100;-76
2021/10/24 03:44:39;;;;;;;4.10;1.65;;;5.30;95.10;;;;;;4989468;28;20144;-76
2021/10/24 03:47:06;;;;;;;2.85;1.30;;;5.20;95.10;;;;;;5022396;28;20100;-76
2021/10/24 03:49:33;;;;;;;3.45;1.67;;;5.30;95.20;;;;;;5005089;28;20072;-76
2021/10/24 03:52:00;;;;;;;3.22;1.40;;;5.20;95.10;;;;;;5021811;28;20047;-76
2021/10/24 03:54:27;;;;;;;3.25;1.52;;;5.20;95.10;;;;;;5008840;28;20132;-76
2021/10/24 03:56:57;;;;;;;2.75;1.10;;;5.20;95.20;;;;;;5012307;28;20049;-76
2021/10/24 03:59:24;;;;;;;3.35;1.30;;;5.20;95.20;;;;;;5010325;28;20045;-76
2021/10/24 04:01:51;;;;;;;3.03;1.45;;;5.20;95.10;;;;;;5009616;28;20056;-76
2021/10/24 04:04:19;;;;;;;3.30;1.60;;;5.20;95.20;;;;;;5008097;28;20465;-76
2021/10/24 04:06:46;;;;;;;3.10;1.17;;;5.10;95.20;;;;;;5022184;28;20046;-76
2021/10/24 04:09:13;;;;;;;4.10;1.92;;;5.10;95.10;;;;;;5034534;28;20088;-76
2021/10/24 04:11:40;;;;;;;3.88;2.00;;;5.10;95.10;;;;;;5005818;28;20483;-76
2021/10/24 04:14:08;;;;;;;5.07;1.70;;;5.10;95.10;;;;;;4988225;28;20068;-76
2021/10/24 04:16:37;;;;;;;3.42;1.70;;;5.10;95.20;;;;;;5014064;28;20163;-76
2021/10/24 04:19:22;;;;;;;2.63;1.17;;;5.00;95.10;;;;;;5012712;28;20049;-76
2021/10/24 04:21:49;;;;;;;2.08;1.00;;;5.00;95.20;;;;;;5014788;28;20033;-76
2021/10/24 04:24:16;;;;;;;3.78;1.75;;;5.00;95.20;;;;;;4989471;28;20064;-76
2021/10/24 04:26:44;;;;;;;3.30;1.50;;;5.00;95.20;;;;;;5019412;28;20042;-76
2021/10/24 04:29:11;;;;;;;3.72;1.40;;;5.00;95.20;;;;;;5008338;28;20046;-76
2021/10/24 04:31:41;;;;;;;3.40;1.33;;;4.90;95.10;;;;;;5010667;28;20092;-76
2021/10/24 04:34:09;;;;;;;3.60;1.75;;;4.90;95.10;;;;;;5005290;28;20064;-76
2021/10/24 04:36:37;;;;;;;2.95;1.48;;;4.90;95.20;;;;;;5009984;28;20135;-76
2021/10/24 04:39:04;;;;;;;3.30;1.63;;;4.80;95.20;;;;;;5028638;28;20054;-76
2021/10/24 04:41:32;;;;;;;3.95;1.50;;;4.80;95.20;;;;;;5015539;28;20492;-76
2021/10/24 04:43:59;;;;;;;3.42;1.45;;;4.90;95.20;;;;;;4990163;28;20095;-76
2021/10/24 04:46:26;;;;;;;4.15;1.50;;;4.80;95.20;;;;;;5005544;28;20041;-76
2021/10/24 04:48:53;;;;;;;4.30;2.15;;;4.80;95.10;;;;;;4999077;28;20038;-76
2021/10/24 04:51:21;;;;;;;4.03;1.63;;;4.80;95.10;;;;;;5012746;28;20043;-76
2021/10/24 04:53:49;;;;;;;4.30;1.58;;;4.80;95.10;;;;;;5023435;28;20084;-76
2021/10/24 04:56:16;;;;;;;3.22;1.23;;;4.80;95.20;;;;;;5016355;28;20091;-76
2021/10/24 04:58:43;;;;;;;3.45;1.55;;;4.80;95.10;;;;;;5019418;28;20044;-76
2021/10/24 05:01:10;;;;;;;2.78;1.30;;;4.70;95.10;;;;;;5007680;28;20034;-76
2021/10/24 05:03:38;;;;;;;2.08;1.10;;;4.70;95.10;;;;;;5019247;28;20127;-76
2021/10/24 05:06:06;;;;;;;4.55;1.40;;;4.70;95.20;;;;;;4983614;28;20076;-76
2021/10/24 05:08:35;;;;;;;3.83;1.27;;;4.70;95.10;;;;;;5023497;28;20056;-76
2021/10/24 05:11:02;;;;;;;2.95;1.20;;;4.70;95.10;;;;;;4995231;28;20050;-76
2021/10/24 05:13:29;;;;;;;3.70;1.35;;;4.70;95.10;;;;;;5006451;28;20049;-76
2021/10/24 05:15:56;;;;;;;3.83;1.30;;;4.60;95.10;;;;;;5017899;28;20400;-76
2021/10/24 05:18:23;;;;;;;2.53;1.25;;;4.60;95.10;;;;;;5007196;28;20038;-76
2021/10/24 05:20:51;;;;;;;3.58;1.50;;;4.60;95.10;;;;;;5022945;28;20050;-76
2021/10/24 05:23:19;;;;;;;3.00;1.20;;;4.60;95.20;;;;;;5010676;28;20042;-76
2021/10/24 05:26:04;;;;;;;2.17;1.02;;;4.60;95.10;;;;;;5031860;28;20052;-76
2021/10/24 05:28:33;;;;;;;2.78;1.40;;;4.50;95.10;;;;;;5037255;28;20496;-76
2021/10/24 05:31:00;;;;;;;3.08;1.33;;;4.50;95.20;;;;;;5015384;28;20062;-76
2021/10/24 05:33:28;;;;;;;3.45;1.50;;;4.50;95.10;;;;;;5020910;28;20588;-76
2021/10/24 05:36:18;;;;;;;3.45;1.20;;;4.50;95.20;;;;;;5021508;28;20042;-76
2021/10/24 05:38:45;;;;;;;2.42;1.02;;;4.50;95.20;;;;;;5019659;28;20099;-76
2021/10/24 05:41:19;;;;;;;4.18;1.50;;;4.50;95.20;;;;;;4989630;28;20065;-76
2021/10/24 05:43:46;;;;;;;4.53;1.33;;;4.50;95.20;;;;;;5034985;28;20490;-76
2021/10/24 05:46:13;;;;;;;2.65;1.20;;;4.50;95.20;;;;;;5017374;28;20058;-76
2021/10/24 05:48:41;;;;;;;3.45;1.20;;;4.50;95.10;;;;;;5011199;28;20037;-76
2021/10/24 05:51:17;;;;;;;3.50;1.52;;;4.50;95.10;;;;;;5011871;28;20076;-76
2021/10/24 05:53:44;;;;;;;2.47;1.02;;;4.50;95.40;;;;;;5016313;28;20042;-76
2021/10/24 05:56:19;;;;;;;2.83;1.25;;;4.50;95.10;;;;;;5006917;28;20045;-76
2021/10/24 05:58:49;;;;;;;3.25;1.17;;;4.50;95.10;;;;;;5009646;28;20053;-76
2021/10/24 06:01:36;;;;;;;2.53;1.05;;;4.50;95.20;;;;;;5018658;28;20050;-76
2021/10/24 06:04:22;;;;;;;2.15;0.95;;;4.50;95.20;;;;;;5023299;28;20135;-76
2021/10/24 06:07:09;;;;;;;2.10;1.10;;;4.50;95.20;;;;;;5020085;28;20950;-76
2021/10/24 06:09:49;;;;;;;2.08;0.95;;;4.50;95.20;;;;;;5017937;28;20136;-76
2021/10/24 06:12:40;;;;;;;2.72;1.35;;;4.50;95.20;;;;;;5014581;28;20404;-76
2021/10/24 06:15:07;;;;;;;2.75;1.02;;;4.40;95.20;;;;;;5010698;28;20042;-76
2021/10/24 06:17:35;;;;;;;2.78;1.17;;;4.40;95.20;;;;;;5019209;28;20067;-76
2021/10/24 06:20:03;;;;;;;2.40;0.93;;;4.40;95.20;;;;;;5033484;28;20034;-76
2021/10/24 06:22:31;;;;;;;2.83;1.05;;;4.40;95.20;;;;;;5018525;28;20042;-76
2021/10/24 06:25:00;;;;;;;2.90;1.60;;;4.40;95.20;;;;;;5023611;28;20103;-76
2021/10/24 06:27:30;;;;;;;2.75;1.17;;;4.50;95.30;;;;;;5004816;28;20087;-76
2021/10/24 06:29:58;;;;;;;2.78;1.10;;;4.50;95.30;;;;;;5020526;28;20052;-76
2021/10/24 06:32:43;;;;;;;3.35;1.55;;;4.50;95.30;;;;;;5015471;28;20587;-77
2021/10/24 06:35:39;;;;;;;2.78;1.25;;;4.50;95.30;;;;;;4986022;28;20046;-77
2021/10/24 06:38:25;;;;;;;2.78;1.25;;;4.60;95.30;;;;;;5021545;28;20072;-76
2021/10/24 06:40:59;;;;;;;1.98;0.82;;;4.60;95.30;;;;;;5014257;28;20033;-77
2021/10/24 06:43:29;;;;;;;2.92;1.13;;;4.70;95.60;;;;;;5011464;28;20042;-76
2021/10/24 06:46:14;;;;;;;2.50;1.33;;;4.70;95.30;;;;;;5023730;28;20555;-76
2021/10/24 06:48:47;;;;;;;2.67;1.05;;;4.70;95.20;;;;;;5021755;28;20052;-76
2021/10/24 06:51:37;;;;;;;2.38;1.00;;;4.80;95.20;;;;;;5025807;28;20187;-76
2021/10/24 06:54:34;;;;;;;2.25;1.10;;;4.80;95.20;;;;;;5025814;28;20049;-76
2021/10/24 06:57:53;;;;;;;2.97;1.13;;;4.80;95.20;;;;;;5012840;28;20049;-76
2021/10/24 07:00:58;;;;;;;3.00;1.10;;;4.90;95.20;;;;;;5046244;28;20513;-76
2021/10/24 07:03:45;;;;;;;2.47;1.00;;;4.90;95.20;;;;;;5032631;28;20385;-76
2021/10/24 07:06:31;;;;;;;2.55;1.13;;;4.90;95.30;;;;;;5022863;28;20049;-76
2021/10/24 07:09:22;;;;;;;2.03;0.80;;;5.00;95.20;;;;;;5013033;28;20052;-76
2021/10/24 07:12:10;;;;;;;4.05;1.30;;;5.00;95.20;;;;;;5010976;28;20069;-76
2021/10/24 07:14:38;;;;;;;2.75;1.15;;;5.00;95.20;;;;;;4991712;28;20042;-76
2021/10/24 07:17:05;;;;;;;3.58;1.20;;;5.10;95.20;;;;;;5011138;28;20069;-76
2021/10/24 07:19:32;;;;;;;2.42;1.00;;;5.10;95.20;;;;;;5033889;28;20048;-76
2021/10/24 07:22:06;;;;;;;3.15;0.85;;;5.20;95.20;;;;;;5011587;28;20405;-77
2021/10/24 07:24:56;;;;;;;3.03;1.05;;;5.20;95.20;;;;;;5016951;28;20383;-76
2021/10/24 07:27:23;;;;;;;2.60;1.00;;;5.30;95.20;;;;;;5005999;28;20077;-76
2021/10/24 07:29:50;;;;;;;2.72;0.95;;;5.30;95.20;;;;;;5021640;28;20052;-77
2021/10/24 07:32:18;;;;;;;2.95;1.20;;;5.30;95.10;;;;;;4986843;28;20074;-76
2021/10/24 07:35:05;;;;;;;2.78;1.10;;;5.40;95.10;;;;;;5028481;28;20536;-76
2021/10/24 07:37:32;;;;;;;4.40;1.33;;;5.40;95.10;;;;;;5031295;28;20045;-76
2021/10/24 07:40:00;;;;;;;3.30;1.42;;;5.40;95.10;;;;;;5032051;28;20496;-76
2021/10/24 07:42:29;;;;;;;5.47;1.90;;;5.50;95.10;;;;;;5002533;28;20041;-77
2021/10/24 07:44:59;;;;;;;3.58;1.80;;;5.50;95.10;;;;;;5004350;28;20034;-76
2021/10/24 07:47:30;;;;;;;3.03;1.42;;;5.50;95.10;;;;;;5025470;28;20425;-76
2021/10/24 07:50:10;;;;;;;3.75;1.52;;;5.60;95.10;;;;;;5025608;28;20045;-76
2021/10/24 07:52:42;;;;;;;4.20;1.50;;;5.60;95.10;;;;;;5022490;28;20053;-76
2021/10/24 07:55:30;;;;;;;2.55;1.13;;;5.70;95.10;;;;;;5018942;28;20049;-76
2021/10/24 07:57:58;;;;;;;3.78;1.63;;;5.70;95.10;;;;;;5032290;28;20045;-77
2021/10/24 08:00:30;;;;;;;2.75;1.25;;;5.70;95.00;;;;;;5032459;28;20042;-77
2021/10/24 08:02:58;;;;;;;3.90;1.63;;;5.80;95.10;;;;;;5016000;28;20516;-76
2021/10/24 08:05:26;;;;;;;3.28;1.13;;;5.80;95.00;;;;;;5012802;28;20045;-77
2021/10/24 08:07:53;;;;;;;3.40;1.60;;;5.80;95.00;;;;;;5028052;28;20067;-77
2021/10/24 08:10:20;;;;;;;2.78;1.42;;;5.90;95.00;;;;;;4999437;28;20037;-78
2021/10/24 08:12:47;;;;;;;3.15;1.40;;;5.90;95.30;;;;;;5015805;28;20040;-77
2021/10/24 08:15:16;;;;;;;4.38;1.40;;;6.00;95.00;;;;;;5012596;28;20041;-77
2021/10/24 08:17:48;;;;;;;4.30;1.83;;;6.10;95.00;;;;;;5008884;28;20140;-76
2021/10/24 08:20:44;;;;;;;3.58;1.73;;;6.10;95.00;;;;;;5007899;28;20386;-76
2021/10/24 08:23:12;;;;;;;3.92;1.90;;;6.20;95.00;;;;;;5015814;28;20053;-76
2021/10/24 08:25:39;;;;;;;3.67;1.58;;;6.20;94.90;;;;;;5012218;28;20401;-76
2021/10/24 08:28:06;;;;;;;3.42;1.60;;;6.30;94.90;;;;;;5012277;28;20041;-77
2021/10/24 08:30:52;;;;;;;4.55;1.75;;;6.30;94.90;;;;;;5018363;28;20048;-76
2021/10/24 08:33:35;;;;;;;2.90;1.40;;;6.40;94.90;;;;;;5031950;28;20049;-77
2021/10/24 08:36:04;;;;;;;3.38;1.52;;;6.40;94.90;;;;;;5015101;28;20037;-77
2021/10/24 08:38:31;;;;;;;3.90;1.85;;;6.50;94.90;;;;;;5011835;28;20557;-78
2021/10/24 08:41:00;;;;;;;4.88;2.28;;;6.50;94.80;;;;;;4995774;28;20121;-78
2021/10/24 08:43:31;;;;;;;4.03;1.80;;;6.60;94.80;;;;;;5023268;28;20060;-78
2021/10/24 08:45:59;;;;;;;4.65;2.10;;;6.60;94.80;;;;;;5031588;28;20373;-80
2021/10/24 08:48:27;;;;;;;5.95;2.47;;;6.70;94.80;;;;;;5031977;28;20045;-80
2021/10/24 08:50:57;;;;;;;5.30;2.70;;;6.70;94.80;;;;;;5015017;28;20049;-80
2021/10/24 08:53:26;;;;;;;4.55;2.55;;;6.80;94.80;;;;;;5015299;28;20056;-80
2021/10/24 08:55:54;;;;;;;6.05;3.28;;;6.80;94.70;;;;;;5012404;28;20065;-78
2021/10/24 08:58:21;;;;;;;5.95;3.03;;;6.90;94.70;;;;;;5015469;28;20045;-78
2021/10/24 09:00:49;;;;;;;3.85;1.80;;;6.90;95.00;;;;;;5011893;28;20049;-78
2021/10/24 09:03:17;;;;;;;4.28;2.25;;;6.90;94.60;;;;;;5025843;28;20413;-79
2021/10/24 09:05:48;;;;;;;4.50;1.90;;;7.00;94.70;;;;;;5031058;28;20477;-78
2021/10/24 09:08:20;;;;;;;4.00;1.90;;;7.00;94.60;;;;;;5030672;28;20045;-78
2021/10/24 09:10:52;;;;;;;3.67;2.10;;;7.10;94.60;;;;;;5047802;28;20049;-78
2021/10/24 09:13:23;;;;;;;4.10;2.25;;;7.10;94.60;;;;;;5032348;28;20034;-78
2021/10/24 09:15:52;;;;;;;5.47;2.63;;;7.20;94.60;;;;;;5019398;28;20154;-79
2021/10/24 09:18:27;;;;;;;5.38;2.33;;;7.20;94.60;;;;;;5028693;28;20096;-78
2021/10/24 09:20:54;;;;;;;4.50;2.30;;;7.20;94.50;;;;;;5019004;28;20041;-78
2021/10/24 09:23:22;;;;;;;4.88;2.28;;;7.30;94.50;;;;;;5014688;28;20033;-77
2021/10/24 09:25:52;;;;;;;5.47;2.92;;;7.30;94.50;;;;;;5031194;28;20046;-78
2021/10/24 09:28:23;;;;;;;4.47;1.88;;;7.40;94.50;;;;;;5027412;28;20160;-76
2021/10/24 09:31:05;;;;;;;4.32;2.13;;;7.40;94.50;;;;;;5031009;28;20045;-77
2021/10/24 09:33:49;;;;;;;5.43;2.20;;;7.50;94.40;;;;;;5014441;28;20489;-78
2021/10/24 09:36:25;;;;;;;5.15;2.00;;;7.50;94.40;;;;;;5032219;28;20045;-77
2021/10/24 09:39:11;;;;;;;5.53;2.70;;;7.50;94.40;;;;;;5015349;28;20056;-77
2021/10/24 09:41:38;;;;;;;6.20;3.20;;;7.60;94.40;;;;;;5022692;28;20037;-77
2021/10/24 09:44:23;;;;;;;4.57;2.47;;;7.60;94.40;;;;;;5017256;28;20042;-77
2021/10/24 09:46:54;;;;;;;4.40;2.22;;;7.70;94.30;;;;;;5031058;28;20125;-77
2021/10/24 09:49:25;;;;;;;5.03;2.88;;;7.70;94.30;;;;;;5011229;28;20108;-78
2021/10/24 09:51:54;;;;;;;5.53;2.83;;;7.80;94.30;;;;;;5021448;28;20049;-78
2021/10/24 09:54:25;;;;;;;4.63;2.08;;;7.80;94.30;;;;;;5032081;28;20537;-77
2021/10/24 09:56:53;;;;;;;4.25;2.25;;;7.80;94.20;;;;;;5030539;28;20053;-77
2021/10/24 09:59:22;;;;;;;3.78;1.80;;;7.90;94.20;;;;;;5030475;28;20093;-77
2021/10/24 10:01:53;;;;;;;5.35;2.00;;;7.90;94.20;;;;;;5030833;28;20034;-77
2021/10/24 10:04:23;;;;;;;3.63;1.65;;;7.90;94.20;;;;;;5014319;28;20044;-78
2021/10/24 10:06:50;;;;;;;6.43;1.80;;;8.00;94.20;;;;;;5014864;28;20049;-78
2021/10/24 10:09:17;;;;;;;3.72;2.10;;;8.00;94.20;;;;;;5033996;28;20045;-78
2021/10/24 10:11:57;;;;;;;3.35;1.67;;;8.00;94.10;;;;;;5014251;28;20042;-78
2021/10/24 10:14:27;;;;;;;5.35;1.80;;;8.10;94.10;;;;;;5027993;28;20045;-77
2021/10/24 10:17:01;;;;;;;3.83;1.65;;;8.10;94.40;;;;;;5020584;28;20052;-77
2021/10/24 10:19:31;;;;;;;3.28;1.50;;;8.20;94.10;;;;;;5033974;28;20045;-78
2021/10/24 10:22:21;;;;;;;3.50;1.52;;;8.20;94.10;;;;;;5034920;28;20042;-77
2021/10/24 10:25:04;;;;;;;3.17;1.63;;;8.20;94.00;;;;;;5033929;28;20038;-76
2021/10/24 10:27:39;;;;;;;;;;;8.30;94.00;;;;;;5035577;28;20037;-76
2021/10/24 10:30:10;;;;;;;3.45;1.30;;;8.30;94.10;;;;;;5034936;28;20026;-78
2021/10/24 10:32:44;;;;;;;3.93;1.53;;;8.30;94.00;;;;;;5034198;28;20077;-78
2021/10/24 10:35:14;;;;;;;4.80;2.42;;;8.30;94.00;;;;;;5014893;28;20052;-77
2021/10/24 10:37:43;;;;;;;4.00;2.30;;;8.40;94.00;;;;;;5023084;28;20052;-78
2021/10/24 10:40:40;;;;;;;4.72;2.88;;;8.50;93.90;;;;;;5035189;28;20117;-78
2021/10/24 10:43:18;;;;;;;4.25;2.17;;;8.50;93.90;;;;;;5033921;28;20381;-79
2021/10/24 10:46:01;;;;;;;6.03;2.92;;;8.50;93.80;;;;;;5032027;28;20037;-78
2021/10/24 10:48:42;;;;;;;4.75;2.28;;;8.60;93.80;;;;;;5024080;28;20033;-77
2021/10/24 10:51:23;;;;;;;4.63;2.15;;;8.60;93.80;;;;;;5033914;28;20037;-77
2021/10/24 10:53:58;;;;;;;4.82;2.20;;;8.70;93.80;;;;;;5026182;28;20033;-76
2021/10/24 10:56:44;;;;;;;5.18;2.45;;;8.70;93.80;;;;;;5034741;28;20037;-76
2021/10/24 10:59:34;;;;;;;4.60;2.10;;;8.80;93.70;;;;;;5032734;28;20223;-77
2021/10/24 11:02:27;;;;;;;5.55;3.30;;;8.80;93.60;;;;;;5033602;28;20042;-77
2021/10/24 11:05:01;;;;;;;5.85;3.60;;;8.80;93.60;;;;;;5032859;28;20470;-77
2021/10/24 11:07:40;;;;;;;4.82;2.25;;;8.90;93.70;;;;;;5033191;28;20052;-77
2021/10/24 11:10:16;;;;;;;4.55;2.35;;;9.00;93.60;;;;;;5033315;28;20068;-77
2021/10/24 11:12:46;;;;;;;4.50;2.13;;;9.00;93.60;;;;;;5033460;28;20048;-77
2021/10/24 11:15:29;;;;;;;3.63;1.77;;;9.00;93.60;;;;;;5033450;28;20095;-77
2021/10/24 11:17:59;;;;;;;4.15;2.22;;;9.00;93.50;;;;;;5032604;28;20394;-78
2021/10/24 11:20:38;;;;;;;5.28;3.00;;;9.10;93.60;;;;;;5017294;28;20504;-77
2021/10/24 11:23:09;;;;;;;5.05;2.63;;;9.20;93.60;;;;;;5032939;28;20056;-76
2021/10/24 11:25:47;;;;;;;5.78;2.80;;;9.20;93.50;;;;;;5044994;28;20045;-78
2021/10/24 11:28:18;;;;;;;5.72;2.95;;;9.30;93.50;;;;;;5012355;28;20042;-79
2021/10/24 11:31:00;;;;;;;7.05;3.20;;;9.30;93.40;;;;;;5033175;28;20121;-77
2021/10/24 11:33:43;;;;;;;4.55;2.60;;;9.40;93.40;;;;;;5032900;28;20053;-76
2021/10/24 11:36:10;;;;;;;4.60;2.13;;;9.40;93.30;;;;;;5034394;28;20033;-77
2021/10/24 11:38:37;;;;;;;4.50;2.10;;;9.40;93.30;;;;;;5016397;28;20374;-77
2021/10/24 11:41:17;;;;;;;4.10;1.67;;;9.40;93.30;;;;;;5000373;28;20164;-77
2021/10/24 11:43:45;;;;;;;4.22;1.83;;;9.50;93.30;;;;;;5016323;28;20084;-77
2021/10/24 11:46:12;;;;;;;3.00;1.33;;;9.50;93.30;;;;;;5012842;28;20045;-77
2021/10/24 11:48:41;;;;;;;5.07;2.03;;;9.50;93.30;;;;;;5040462;28;20048;-78
2021/10/24 11:51:10;;;;;;;4.55;1.75;;;9.50;93.20;;;;;;5016394;28;20470;-77
2021/10/24 11:53:39;;;;;;;5.80;2.50;;;9.60;93.20;;;;;;5042370;28;20389;-78
2021/10/24 11:56:51;;;;;;;5.10;2.20;;;9.70;93.20;;;;;;5035275;28;20073;-78
2021/10/24 11:59:35;;;;;;;4.57;1.80;;;9.70;93.10;;;;;;5045621;28;20071;-77
2021/10/24 12:02:10;;;;;;;3.30;1.45;;;9.70;93.10;;;;;;5018722;28;20095;-77
2021/10/24 12:04:37;;;;;;;2.97;1.48;;;9.70;93.10;;;;;;5041476;28;20049;-77
2021/10/24 12:07:05;;;;;;;2.67;1.05;;;9.70;93.10;;;;;;5016023;28;20379;-77
2021/10/24 12:09:45;;;;;;;3.40;1.85;;;9.70;93.10;;;;;;5018544;28;20560;-77
2021/10/24 12:12:34;;;;;;;2.38;1.08;;;9.70;93.00;;;;;;5032214;28;20049;-78
2021/10/24 12:15:03;;;;;;;3.45;1.40;;;9.80;93.00;;;;;;5031314;28;20091;-76
2021/10/24 12:17:38;;;;;;;3.95;1.70;;;9.80;93.00;;;;;;5026852;28;20041;-76
2021/10/24 12:20:26;;;;;;;2.88;1.38;;;9.90;92.90;;;;;;5037076;28;20505;-76
2021/10/24 12:23:01;;;;;;;3.55;1.48;;;9.90;92.90;;;;;;5048581;28;20049;-76
2021/10/24 12:25:47;;;;;;;3.80;1.70;;;10.00;92.90;;;;;;5032056;28;20414;-77
2021/10/24 12:28:32;;;;;;;2.92;1.50;;;10.00;92.80;;;;;;5011395;28;20073;-77
2021/10/24 12:31:16;;;;;;;3.72;1.88;;;10.00;92.80;;;;;;5028717;28;20046;-77
2021/10/24 12:33:45;;;;;;;3.45;2.03;;;10.10;92.80;;;;;;5026279;28;20436;-77
2021/10/24 12:36:29;;;;;;;2.97;1.38;;;10.10;92.80;;;;;;5017066;28;20401;-77
2021/10/24 12:38:58;;;;;;;2.53;1.20;;;10.10;92.70;;;;;;5034782;28;20053;-76
2021/10/24 12:41:46;;;;;;;2.30;1.30;;;10.10;92.70;;;;;;5035925;28;20073;-76
2021/10/24 12:44:15;;;;;;;2.85;1.20;;;10.10;92.70;;;;;;5034418;28;20045;-76
2021/10/24 12:46:42;;;;;;;3.45;0.90;;;10.20;92.80;;;;;;5033163;28;20128;-75
2021/10/24 12:49:11;;;;;;;2.55;1.58;;;10.20;92.70;;;;;;5016753;28;20072;-77
2021/10/24 12:51:40;;;;;;;2.60;1.33;;;10.20;92.70;;;;;;5027239;28;20041;-77
2021/10/24 12:54:09;;;;;;;3.13;1.30;;;10.30;92.70;;;;;;5011936;28;20045;-78
2021/10/24 12:56:40;;;;;;;3.20;1.40;;;10.30;92.60;;;;;;5018324;28;20033;-77
2021/10/24 12:59:07;;;;;;;3.58;1.58;;;10.40;92.60;;;;;;5036487;28;20040;-78
2021/10/24 13:01:36;;;;;;;3.70;2.00;;;10.40;92.50;;;;;;5011595;28;20087;-78
2021/10/24 13:04:04;;;;;;;3.20;1.90;;;10.40;92.50;;;;;;5001667;28;20507;-79
2021/10/24 13:06:31;;;;;;;4.35;2.00;;;10.40;92.40;;;;;;5014514;28;20057;-78
2021/10/24 13:08:59;;;;;;;3.20;1.77;;;10.40;92.40;;;;;;5008882;28;20445;-77
2021/10/24 13:11:27;;;;;;;3.38;1.50;;;10.40;92.40;;;;;;5027289;28;20057;-79
2021/10/24 13:13:55;;;;;;;4.72;2.10;;;10.40;92.40;;;;;;5002559;28;20049;-79
2021/10/24 13:16:22;;;;;;;3.22;1.27;;;10.50;92.40;;;;;;5031178;28;20045;-77
2021/10/24 13:18:50;;;;;;;3.40;1.40;;;10.50;92.40;;;;;;5032126;28;20112;-79
2021/10/24 13:24:11;;;;;;;3.50;1.60;;;10.50;92.40;;;;;;5022020;28;20033;-78